Airport Name : Pafos Intl

Other Name : Pafos Intl

ICAO : LCPH

IATA : PFO

FAA :

Latitude : 34.718039

Longitude : 32.485731

Country : Cyprus

Local Date and Time : 10/16/2018 11:58:00 AM

 

TAF (Terminal Aerodrome Forecast)

TAF LCPH 160530Z 1606/1706 02007KT 9999 FEW025 BECMG 1608/1610 28012KT BECMG 1617/1619 02007KT

 

METAR (METeorological Aerodrome Report)

LCPH 160830Z 27011KT 9999 FEW025 27/19 Q1015

LCPH 160800Z 27011KT 9999 FEW025 27/19 Q1015

LCPH 160730Z 27009KT 9999 FEW025 27/19 Q1015

LCPH 160700Z 30008KT 9999 FEW025 27/19 Q1015

LCPH 160630Z 31007KT 9999 FEW025 26/18 Q1015

LCPH 160600Z 02003KT 9999 FEW025 25/18 Q1015

LCPH 160530Z 04005KT 9999 FEW025 23/17 Q1015

LCPH 160500Z 03004KT 9999 FEW025 22/17 Q1015